sensor_id;sensor_type;location;lat;lon;timestamp;temperature;humidity
37560;DHT22;23398;50.928;7.084;2022-09-09T00:00:24;20.10;73.80
37560;DHT22;23398;50.928;7.084;2022-09-09T00:03:02;20.10;73.00
37560;DHT22;23398;50.928;7.084;2022-09-09T00:05:50;20.10;73.20
37560;DHT22;23398;50.928;7.084;2022-09-09T00:08:32;20.10;73.30
37560;DHT22;23398;50.928;7.084;2022-09-09T00:11:03;20.20;73.10
37560;DHT22;23398;50.928;7.084;2022-09-09T00:13:37;20.10;72.80
37560;DHT22;23398;50.928;7.084;2022-09-09T00:16:15;20.10;72.80
37560;DHT22;23398;50.928;7.084;2022-09-09T00:22:28;20.10;73.10
37560;DHT22;23398;50.928;7.084;2022-09-09T00:24:54;20.10;72.90
37560;DHT22;23398;50.928;7.084;2022-09-09T00:27:32;20.10;72.30
37560;DHT22;23398;50.928;7.084;2022-09-09T00:32:44;20.00;72.50
37560;DHT22;23398;50.928;7.084;2022-09-09T00:37:36;20.00;72.40
37560;DHT22;23398;50.928;7.084;2022-09-09T00:40:15;19.90;72.40
37560;DHT22;23398;50.928;7.084;2022-09-09T00:42:43;19.90;72.70
37560;DHT22;23398;50.928;7.084;2022-09-09T00:45:41;19.80;72.60
37560;DHT22;23398;50.928;7.084;2022-09-09T00:48:12;19.80;73.40
37560;DHT22;23398;50.928;7.084;2022-09-09T00:50:55;20.20;73.50
37560;DHT22;23398;50.928;7.084;2022-09-09T00:56:19;19.70;74.10
37560;DHT22;23398;50.928;7.084;2022-09-09T01:01:35;19.70;74.80
37560;DHT22;23398;50.928;7.084;2022-09-09T01:04:07;19.60;74.40
37560;DHT22;23398;50.928;7.084;2022-09-09T01:06:36;19.70;74.80
37560;DHT22;23398;50.928;7.084;2022-09-09T01:09:26;19.70;74.80
37560;DHT22;23398;50.928;7.084;2022-09-09T01:14:42;19.70;74.90
37560;DHT22;23398;50.928;7.084;2022-09-09T01:22:50;19.70;75.10
37560;DHT22;23398;50.928;7.084;2022-09-09T01:28:11;19.70;74.80
37560;DHT22;23398;50.928;7.084;2022-09-09T01:30:40;20.50;75.60
37560;DHT22;23398;50.928;7.084;2022-09-09T01:33:13;19.80;74.80
37560;DHT22;23398;50.928;7.084;2022-09-09T01:35:59;19.60;74.70
37560;DHT22;23398;50.928;7.084;2022-09-09T01:38:26;19.80;75.10
37560;DHT22;23398;50.928;7.084;2022-09-09T01:40:53;19.60;74.50
37560;DHT22;23398;50.928;7.084;2022-09-09T01:43:20;19.60;74.70
37560;DHT22;23398;50.928;7.084;2022-09-09T01:45:48;19.60;74.70
37560;DHT22;23398;50.928;7.084;2022-09-09T01:48:15;19.70;74.80
37560;DHT22;23398;50.928;7.084;2022-09-09T01:50:41;19.60;74.60
37560;DHT22;23398;50.928;7.084;2022-09-09T01:53:07;19.60;74.70
37560;DHT22;23398;50.928;7.084;2022-09-09T01:55:40;19.60;74.50
37560;DHT22;23398;50.928;7.084;2022-09-09T02:01:41;19.60;75.10
37560;DHT22;23398;50.928;7.084;2022-09-09T02:04:05;19.70;75.00
37560;DHT22;23398;50.928;7.084;2022-09-09T02:06:37;19.70;74.70
37560;DHT22;23398;50.928;7.084;2022-09-09T02:09:06;19.70;74.70
37560;DHT22;23398;50.928;7.084;2022-09-09T02:11:33;19.70;74.70
37560;DHT22;23398;50.928;7.084;2022-09-09T02:14:22;19.70;74.70
37560;DHT22;23398;50.928;7.084;2022-09-09T02:16:56;19.80;74.70
37560;DHT22;23398;50.928;7.084;2022-09-09T02:19:36;19.90;75.00
37560;DHT22;23398;50.928;7.084;2022-09-09T02:22:03;19.90;74.80
37560;DHT22;23398;50.928;7.084;2022-09-09T02:24:36;20.10;74.60
37560;DHT22;23398;50.928;7.084;2022-09-09T02:27:04;20.00;74.40
37560;DHT22;23398;50.928;7.084;2022-09-09T02:29:34;20.00;74.20
37560;DHT22;23398;50.928;7.084;2022-09-09T02:32:03;20.00;74.20
37560;DHT22;23398;50.928;7.084;2022-09-09T02:34:32;20.00;74.00
37560;DHT22;23398;50.928;7.084;2022-09-09T02:37:01;20.40;74.40
37560;DHT22;23398;50.928;7.084;2022-09-09T02:39:28;20.00;74.10
37560;DHT22;23398;50.928;7.084;2022-09-09T02:41:54;20.00;74.10
37560;DHT22;23398;50.928;7.084;2022-09-09T02:44:19;20.00;74.10
37560;DHT22;23398;50.928;7.084;2022-09-09T02:57:51;20.10;74.40
37560;DHT22;23398;50.928;7.084;2022-09-09T03:00:24;20.00;74.00
37560;DHT22;23398;50.928;7.084;2022-09-09T03:02:50;20.10;74.20
37560;DHT22;23398;50.928;7.084;2022-09-09T03:05:16;20.60;74.60
37560;DHT22;23398;50.928;7.084;2022-09-09T03:07:42;20.10;74.10
37560;DHT22;23398;50.928;7.084;2022-09-09T03:10:08;20.10;74.00
37560;DHT22;23398;50.928;7.084;2022-09-09T03:12:33;20.10;74.00
37560;DHT22;23398;50.928;7.084;2022-09-09T03:14:59;20.10;74.00
37560;DHT22;23398;50.928;7.084;2022-09-09T03:17:24;20.40;74.30
37560;DHT22;23398;50.928;7.084;2022-09-09T03:19:51;20.10;74.00
37560;DHT22;23398;50.928;7.084;2022-09-09T03:22:19;20.20;74.00
37560;DHT22;23398;50.928;7.084;2022-09-09T03:24:46;20.30;74.20
37560;DHT22;23398;50.928;7.084;2022-09-09T03:27:12;20.20;73.90
37560;DHT22;23398;50.928;7.084;2022-09-09T03:29:39;20.20;73.80
37560;DHT22;23398;50.928;7.084;2022-09-09T03:32:05;20.20;73.70
37560;DHT22;23398;50.928;7.084;2022-09-09T03:34:31;20.20;73.70
37560;DHT22;23398;50.928;7.084;2022-09-09T03:36:56;20.20;73.60
37560;DHT22;23398;50.928;7.084;2022-09-09T03:39:22;20.20;73.40
37560;DHT22;23398;50.928;7.084;2022-09-09T03:41:48;20.20;73.30
37560;DHT22;23398;50.928;7.084;2022-09-09T03:44:14;20.30;73.30
37560;DHT22;23398;50.928;7.084;2022-09-09T03:46:40;20.20;73.20
37560;DHT22;23398;50.928;7.084;2022-09-09T03:49:05;20.20;73.00
37560;DHT22;23398;50.928;7.084;2022-09-09T03:51:31;21.10;74.00
37560;DHT22;23398;50.928;7.084;2022-09-09T03:53:57;20.30;73.40
37560;DHT22;23398;50.928;7.084;2022-09-09T03:56:24;21.10;73.70
37560;DHT22;23398;50.928;7.084;2022-09-09T03:58:49;20.30;72.80
37560;DHT22;23398;50.928;7.084;2022-09-09T04:01:15;20.30;72.90
37560;DHT22;23398;50.928;7.084;2022-09-09T04:03:43;20.30;72.80
37560;DHT22;23398;50.928;7.084;2022-09-09T04:06:11;20.40;72.90
37560;DHT22;23398;50.928;7.084;2022-09-09T04:08:38;20.50;72.90
37560;DHT22;23398;50.928;7.084;2022-09-09T04:11:05;20.40;72.80
37560;DHT22;23398;50.928;7.084;2022-09-09T04:13:32;20.40;72.70
37560;DHT22;23398;50.928;7.084;2022-09-09T04:16:00;20.40;72.60
37560;DHT22;23398;50.928;7.084;2022-09-09T04:18:27;20.50;72.60
37560;DHT22;23398;50.928;7.084;2022-09-09T04:20:53;20.50;72.50
37560;DHT22;23398;50.928;7.084;2022-09-09T04:23:20;20.50;72.50
37560;DHT22;23398;50.928;7.084;2022-09-09T04:25:50;20.50;72.60
37560;DHT22;23398;50.928;7.084;2022-09-09T04:28:17;20.50;72.60
37560;DHT22;23398;50.928;7.084;2022-09-09T04:30:44;21.00;73.10
37560;DHT22;23398;50.928;7.084;2022-09-09T04:33:10;20.50;72.70
37560;DHT22;23398;50.928;7.084;2022-09-09T04:35:37;20.50;72.90
37560;DHT22;23398;50.928;7.084;2022-09-09T04:38:04;20.50;73.10
37560;DHT22;23398;50.928;7.084;2022-09-09T04:40:31;20.50;73.20
37560;DHT22;23398;50.928;7.084;2022-09-09T04:43:01;20.50;73.20
37560;DHT22;23398;50.928;7.084;2022-09-09T04:45:29;20.50;73.20
37560;DHT22;23398;50.928;7.084;2022-09-09T04:47:55;20.40;72.90
37560;DHT22;23398;50.928;7.084;2022-09-09T04:50:21;20.40;72.70
37560;DHT22;23398;50.928;7.084;2022-09-09T04:52:46;20.40;72.60
37560;DHT22;23398;50.928;7.084;2022-09-09T04:55:12;20.40;72.70
37560;DHT22;23398;50.928;7.084;2022-09-09T04:57:39;20.40;72.90
37560;DHT22;23398;50.928;7.084;2022-09-09T05:00:05;20.40;72.90
37560;DHT22;23398;50.928;7.084;2022-09-09T05:02:30;20.40;72.90
37560;DHT22;23398;50.928;7.084;2022-09-09T05:04:57;20.40;73.00
37560;DHT22;23398;50.928;7.084;2022-09-09T05:07:24;20.40;73.00
37560;DHT22;23398;50.928;7.084;2022-09-09T05:09:51;20.40;73.10
37560;DHT22;23398;50.928;7.084;2022-09-09T05:12:17;21.00;73.80
37560;DHT22;23398;50.928;7.084;2022-09-09T05:14:43;20.30;73.00
37560;DHT22;23398;50.928;7.084;2022-09-09T05:17:09;20.40;73.10
37560;DHT22;23398;50.928;7.084;2022-09-09T05:19:34;20.70;73.50
37560;DHT22;23398;50.928;7.084;2022-09-09T05:22:00;20.40;73.90
37560;DHT22;23398;50.928;7.084;2022-09-09T05:24:26;20.40;73.10
37560;DHT22;23398;50.928;7.084;2022-09-09T05:26:52;20.40;72.90
37560;DHT22;23398;50.928;7.084;2022-09-09T05:29:17;20.40;72.90
37560;DHT22;23398;50.928;7.084;2022-09-09T05:31:45;20.40;73.00
37560;DHT22;23398;50.928;7.084;2022-09-09T05:34:10;20.40;73.10
37560;DHT22;23398;50.928;7.084;2022-09-09T05:36:36;21.10;74.00
37560;DHT22;23398;50.928;7.084;2022-09-09T05:39:02;20.50;73.30
37560;DHT22;23398;50.928;7.084;2022-09-09T05:41:28;20.50;73.40
37560;DHT22;23398;50.928;7.084;2022-09-09T05:43:55;20.50;73.40
37560;DHT22;23398;50.928;7.084;2022-09-09T05:46:22;20.50;73.40
37560;DHT22;23398;50.928;7.084;2022-09-09T05:48:50;20.50;73.40
37560;DHT22;23398;50.928;7.084;2022-09-09T05:51:22;20.50;73.30
37560;DHT22;23398;50.928;7.084;2022-09-09T05:53:48;20.50;73.30
37560;DHT22;23398;50.928;7.084;2022-09-09T05:56:20;20.70;73.20
37560;DHT22;23398;50.928;7.084;2022-09-09T05:58:47;20.60;72.80
37560;DHT22;23398;50.928;7.084;2022-09-09T06:01:17;20.80;72.90
37560;DHT22;23398;50.928;7.084;2022-09-09T06:03:44;20.60;72.50
37560;DHT22;23398;50.928;7.084;2022-09-09T06:06:26;20.60;72.50
37560;DHT22;23398;50.928;7.084;2022-09-09T06:08:55;20.60;72.50
37560;DHT22;23398;50.928;7.084;2022-09-09T06:11:26;20.80;72.50
37560;DHT22;23398;50.928;7.084;2022-09-09T06:13:52;20.70;72.30
37560;DHT22;23398;50.928;7.084;2022-09-09T06:16:22;21.40;72.90
37560;DHT22;23398;50.928;7.084;2022-09-09T06:18:52;20.80;72.00
37560;DHT22;23398;50.928;7.084;2022-09-09T06:21:20;20.90;71.80
37560;DHT22;23398;50.928;7.084;2022-09-09T06:23:47;20.90;71.30
37560;DHT22;23398;50.928;7.084;2022-09-09T06:26:14;20.90;71.10
37560;DHT22;23398;50.928;7.084;2022-09-09T06:28:40;21.10;71.20
37560;DHT22;23398;50.928;7.084;2022-09-09T06:31:10;21.20;71.10
37560;DHT22;23398;50.928;7.084;2022-09-09T06:33:41;21.20;70.80
37560;DHT22;23398;50.928;7.084;2022-09-09T06:36:34;21.90;71.20
37560;DHT22;23398;50.928;7.084;2022-09-09T06:39:00;21.50;70.20
37560;DHT22;23398;50.928;7.084;2022-09-09T06:41:30;22.40;71.00
37560;DHT22;23398;50.928;7.084;2022-09-09T06:43:57;21.70;69.90
37560;DHT22;23398;50.928;7.084;2022-09-09T06:46:25;21.80;69.30
37560;DHT22;23398;50.928;7.084;2022-09-09T06:48:55;21.90;69.10
37560;DHT22;23398;50.928;7.084;2022-09-09T06:51:26;22.10;68.80
37560;DHT22;23398;50.928;7.084;2022-09-09T06:53:54;22.30;68.60
37560;DHT22;23398;50.928;7.084;2022-09-09T06:56:33;22.50;68.10
37560;DHT22;23398;50.928;7.084;2022-09-09T06:59:01;22.70;67.40
37560;DHT22;23398;50.928;7.084;2022-09-09T07:01:29;22.80;66.50
37560;DHT22;23398;50.928;7.084;2022-09-09T07:03:56;22.90;65.70
37560;DHT22;23398;50.928;7.084;2022-09-09T07:06:26;23.10;66.10
37560;DHT22;23398;50.928;7.084;2022-09-09T07:09:00;23.30;67.00
37560;DHT22;23398;50.928;7.084;2022-09-09T07:11:28;23.80;68.00
37560;DHT22;23398;50.928;7.084;2022-09-09T07:13:54;24.40;67.50
37560;DHT22;23398;50.928;7.084;2022-09-09T07:16:22;25.20;66.90
37560;DHT22;23398;50.928;7.084;2022-09-09T07:18:50;26.20;66.10
37560;DHT22;23398;50.928;7.084;2022-09-09T07:21:17;27.20;63.90
37560;DHT22;23398;50.928;7.084;2022-09-09T07:23:43;28.20;61.20
37560;DHT22;23398;50.928;7.084;2022-09-09T07:26:10;29.30;59.10
37560;DHT22;23398;50.928;7.084;2022-09-09T07:28:37;30.30;57.60
37560;DHT22;23398;50.928;7.084;2022-09-09T07:31:03;31.40;55.00
37560;DHT22;23398;50.928;7.084;2022-09-09T07:33:31;32.30;51.70
37560;DHT22;23398;50.928;7.084;2022-09-09T07:38:43;33.60;48.50
37560;DHT22;23398;50.928;7.084;2022-09-09T07:41:15;34.20;47.80
37560;DHT22;23398;50.928;7.084;2022-09-09T07:43:42;34.80;47.20
37560;DHT22;23398;50.928;7.084;2022-09-09T07:46:09;35.40;46.20
37560;DHT22;23398;50.928;7.084;2022-09-09T07:48:35;36.10;44.90
37560;DHT22;23398;50.928;7.084;2022-09-09T07:51:12;36.90;44.10
37560;DHT22;23398;50.928;7.084;2022-09-09T07:53:43;37.60;43.00
37560;DHT22;23398;50.928;7.084;2022-09-09T07:56:11;38.30;40.90
37560;DHT22;23398;50.928;7.084;2022-09-09T07:58:38;38.80;39.40
37560;DHT22;23398;50.928;7.084;2022-09-09T08:01:13;38.90;37.70
37560;DHT22;23398;50.928;7.084;2022-09-09T08:03:39;38.70;36.80
37560;DHT22;23398;50.928;7.084;2022-09-09T08:06:07;38.40;36.50
37560;DHT22;23398;50.928;7.084;2022-09-09T08:08:34;37.80;35.90
37560;DHT22;23398;50.928;7.084;2022-09-09T08:11:06;37.10;36.10
37560;DHT22;23398;50.928;7.084;2022-09-09T08:13:34;36.30;36.70
37560;DHT22;23398;50.928;7.084;2022-09-09T08:16:14;35.60;37.30
37560;DHT22;23398;50.928;7.084;2022-09-09T08:18:40;34.80;37.90
37560;DHT22;23398;50.928;7.084;2022-09-09T08:21:11;34.10;38.40
37560;DHT22;23398;50.928;7.084;2022-09-09T08:23:41;33.40;38.70
37560;DHT22;23398;50.928;7.084;2022-09-09T08:26:12;32.80;39.40
37560;DHT22;23398;50.928;7.084;2022-09-09T08:28:39;32.20;40.10
37560;DHT22;23398;50.928;7.084;2022-09-09T08:31:14;31.60;40.90
37560;DHT22;23398;50.928;7.084;2022-09-09T08:33:41;31.20;41.30
37560;DHT22;23398;50.928;7.084;2022-09-09T08:36:10;30.70;42.40
37560;DHT22;23398;50.928;7.084;2022-09-09T08:38:37;30.40;42.20
37560;DHT22;23398;50.928;7.084;2022-09-09T08:43:48;29.60;43.20
37560;DHT22;23398;50.928;7.084;2022-09-09T08:46:39;29.30;43.50
37560;DHT22;23398;50.928;7.084;2022-09-09T08:52:08;29.00;44.80
37560;DHT22;23398;50.928;7.084;2022-09-09T08:54:37;28.90;45.10
37560;DHT22;23398;50.928;7.084;2022-09-09T08:57:11;29.10;45.20
37560;DHT22;23398;50.928;7.084;2022-09-09T08:59:39;29.00;44.90
37560;DHT22;23398;50.928;7.084;2022-09-09T09:02:17;29.00;44.80
37560;DHT22;23398;50.928;7.084;2022-09-09T09:04:56;28.90;44.80
37560;DHT22;23398;50.928;7.084;2022-09-09T09:07:51;29.00;45.30
37560;DHT22;23398;50.928;7.084;2022-09-09T09:10:46;28.80;45.60
37560;DHT22;23398;50.928;7.084;2022-09-09T09:16:11;28.90;45.20
37560;DHT22;23398;50.928;7.084;2022-09-09T09:18:39;28.90;45.30
37560;DHT22;23398;50.928;7.084;2022-09-09T09:21:12;28.90;45.40
37560;DHT22;23398;50.928;7.084;2022-09-09T09:26:19;29.50;46.50
37560;DHT22;23398;50.928;7.084;2022-09-09T09:28:47;30.00;46.30
37560;DHT22;23398;50.928;7.084;2022-09-09T09:31:13;30.50;44.90
37560;DHT22;23398;50.928;7.084;2022-09-09T09:36:09;30.90;43.20
37560;DHT22;23398;50.928;7.084;2022-09-09T09:38:36;31.00;42.60
37560;DHT22;23398;50.928;7.084;2022-09-09T09:41:02;31.00;42.00
37560;DHT22;23398;50.928;7.084;2022-09-09T09:43:36;30.80;41.90
37560;DHT22;23398;50.928;7.084;2022-09-09T09:46:19;30.60;41.90
37560;DHT22;23398;50.928;7.084;2022-09-09T09:48:44;30.20;42.00
37560;DHT22;23398;50.928;7.084;2022-09-09T09:51:14;30.00;42.60
37560;DHT22;23398;50.928;7.084;2022-09-09T09:53:42;29.70;42.80
37560;DHT22;23398;50.928;7.084;2022-09-09T09:56:10;29.40;43.40
37560;DHT22;23398;50.928;7.084;2022-09-09T09:58:50;29.10;43.70
37560;DHT22;23398;50.928;7.084;2022-09-09T10:01:34;28.80;44.00
37560;DHT22;23398;50.928;7.084;2022-09-09T10:04:02;28.60;44.40
37560;DHT22;23398;50.928;7.084;2022-09-09T10:06:36;28.40;45.40
37560;DHT22;23398;50.928;7.084;2022-09-09T10:09:17;28.20;45.10
37560;DHT22;23398;50.928;7.084;2022-09-09T10:17:18;28.10;45.80
37560;DHT22;23398;50.928;7.084;2022-09-09T10:22:33;28.10;45.60
37560;DHT22;23398;50.928;7.084;2022-09-09T10:30:24;28.10;45.40
37560;DHT22;23398;50.928;7.084;2022-09-09T10:33:10;28.30;45.00
37560;DHT22;23398;50.928;7.084;2022-09-09T10:36:02;28.20;44.70
37560;DHT22;23398;50.928;7.084;2022-09-09T10:38:45;28.10;44.40
37560;DHT22;23398;50.928;7.084;2022-09-09T10:50:08;27.80;45.20
37560;DHT22;23398;50.928;7.084;2022-09-09T10:55:17;27.90;45.30
37560;DHT22;23398;50.928;7.084;2022-09-09T10:57:53;27.70;45.60
37560;DHT22;23398;50.928;7.084;2022-09-09T11:00:23;27.60;45.60
37560;DHT22;23398;50.928;7.084;2022-09-09T11:02:56;27.60;45.60
37560;DHT22;23398;50.928;7.084;2022-09-09T11:05:49;27.70;45.90
37560;DHT22;23398;50.928;7.084;2022-09-09T11:08:26;27.70;45.60
37560;DHT22;23398;50.928;7.084;2022-09-09T11:10:53;27.60;45.30
37560;DHT22;23398;50.928;7.084;2022-09-09T11:19:24;27.80;45.50
37560;DHT22;23398;50.928;7.084;2022-09-09T11:21:52;27.80;45.40
37560;DHT22;23398;50.928;7.084;2022-09-09T11:24:53;28.00;45.70
37560;DHT22;23398;50.928;7.084;2022-09-09T11:27:30;28.00;45.40
37560;DHT22;23398;50.928;7.084;2022-09-09T11:30:48;28.20;45.20
37560;DHT22;23398;50.928;7.084;2022-09-09T11:33:55;28.30;45.40
37560;DHT22;23398;50.928;7.084;2022-09-09T11:42:19;28.60;44.10
37560;DHT22;23398;50.928;7.084;2022-09-09T11:44:45;28.50;44.70
37560;DHT22;23398;50.928;7.084;2022-09-09T11:47:19;28.60;44.20
37560;DHT22;23398;50.928;7.084;2022-09-09T11:49:47;28.60;44.00
37560;DHT22;23398;50.928;7.084;2022-09-09T11:52:34;28.50;43.80
37560;DHT22;23398;50.928;7.084;2022-09-09T11:55:09;28.50;44.00
37560;DHT22;23398;50.928;7.084;2022-09-09T11:57:38;28.50;44.30
37560;DHT22;23398;50.928;7.084;2022-09-09T12:00:05;28.60;43.90
37560;DHT22;23398;50.928;7.084;2022-09-09T12:02:31;28.60;44.30
37560;DHT22;23398;50.928;7.084;2022-09-09T12:05:11;28.70;44.10
37560;DHT22;23398;50.928;7.084;2022-09-09T12:08:00;28.70;43.90
37560;DHT22;23398;50.928;7.084;2022-09-09T12:10:30;28.80;44.10
37560;DHT22;23398;50.928;7.084;2022-09-09T12:13:21;28.80;43.80
37560;DHT22;23398;50.928;7.084;2022-09-09T12:15:59;28.80;43.70
37560;DHT22;23398;50.928;7.084;2022-09-09T12:18:37;28.90;43.50
37560;DHT22;23398;50.928;7.084;2022-09-09T12:21:25;28.90;43.30
37560;DHT22;23398;50.928;7.084;2022-09-09T12:23:59;28.80;43.20
37560;DHT22;23398;50.928;7.084;2022-09-09T12:29:56;28.70;43.00
37560;DHT22;23398;50.928;7.084;2022-09-09T12:32:26;28.50;43.20
37560;DHT22;23398;50.928;7.084;2022-09-09T12:34:54;28.40;43.20
37560;DHT22;23398;50.928;7.084;2022-09-09T12:37:31;28.20;43.40
37560;DHT22;23398;50.928;7.084;2022-09-09T12:40:01;28.10;43.40
37560;DHT22;23398;50.928;7.084;2022-09-09T12:42:28;28.10;43.80
37560;DHT22;23398;50.928;7.084;2022-09-09T12:45:01;27.90;44.40
37560;DHT22;23398;50.928;7.084;2022-09-09T12:50:21;27.90;44.20
37560;DHT22;23398;50.928;7.084;2022-09-09T12:52:49;27.80;44.00
37560;DHT22;23398;50.928;7.084;2022-09-09T12:55:31;27.70;43.90
37560;DHT22;23398;50.928;7.084;2022-09-09T12:57:59;27.70;44.00
37560;DHT22;23398;50.928;7.084;2022-09-09T13:00:26;27.70;44.10
37560;DHT22;23398;50.928;7.084;2022-09-09T13:03:13;27.60;44.10
37560;DHT22;23398;50.928;7.084;2022-09-09T13:05:39;27.60;44.60
37560;DHT22;23398;50.928;7.084;2022-09-09T13:08:10;27.50;44.40
37560;DHT22;23398;50.928;7.084;2022-09-09T13:10:57;27.50;45.20
37560;DHT22;23398;50.928;7.084;2022-09-09T13:13:38;27.50;45.10
37560;DHT22;23398;50.928;7.084;2022-09-09T13:16:07;27.60;44.80
37560;DHT22;23398;50.928;7.084;2022-09-09T13:18:42;27.60;45.10
37560;DHT22;23398;50.928;7.084;2022-09-09T13:21:09;27.70;46.20
37560;DHT22;23398;50.928;7.084;2022-09-09T13:23:36;27.70;46.20
37560;DHT22;23398;50.928;7.084;2022-09-09T13:26:05;27.90;45.60
37560;DHT22;23398;50.928;7.084;2022-09-09T13:28:33;27.70;45.40
37560;DHT22;23398;50.928;7.084;2022-09-09T13:33:43;27.70;45.80
37560;DHT22;23398;50.928;7.084;2022-09-09T13:36:11;27.70;45.80
37560;DHT22;23398;50.928;7.084;2022-09-09T13:38:55;27.80;46.30
37560;DHT22;23398;50.928;7.084;2022-09-09T13:41:28;28.00;46.10
37560;DHT22;23398;50.928;7.084;2022-09-09T13:43:54;28.10;45.90
37560;DHT22;23398;50.928;7.084;2022-09-09T13:48:59;28.40;45.80
37560;DHT22;23398;50.928;7.084;2022-09-09T13:51:38;28.50;45.50
37560;DHT22;23398;50.928;7.084;2022-09-09T13:54:05;28.60;45.20
37560;DHT22;23398;50.928;7.084;2022-09-09T13:56:33;28.70;45.00
37560;DHT22;23398;50.928;7.084;2022-09-09T13:58:59;28.70;45.00
37560;DHT22;23398;50.928;7.084;2022-09-09T14:01:24;28.70;45.20
37560;DHT22;23398;50.928;7.084;2022-09-09T14:03:50;28.70;44.70
37560;DHT22;23398;50.928;7.084;2022-09-09T14:06:16;28.70;44.70
37560;DHT22;23398;50.928;7.084;2022-09-09T14:08:44;28.80;44.60
37560;DHT22;23398;50.928;7.084;2022-09-09T14:11:12;28.80;44.60
37560;DHT22;23398;50.928;7.084;2022-09-09T14:13:38;28.80;44.40
37560;DHT22;23398;50.928;7.084;2022-09-09T14:16:04;29.00;44.70
37560;DHT22;23398;50.928;7.084;2022-09-09T14:18:29;28.90;44.60
37560;DHT22;23398;50.928;7.084;2022-09-09T14:20:55;28.90;44.40
37560;DHT22;23398;50.928;7.084;2022-09-09T14:23:22;28.90;44.70
37560;DHT22;23398;50.928;7.084;2022-09-09T14:25:48;28.80;44.80
37560;DHT22;23398;50.928;7.084;2022-09-09T14:28:14;28.80;44.90
37560;DHT22;23398;50.928;7.084;2022-09-09T14:30:41;28.80;44.90
37560;DHT22;23398;50.928;7.084;2022-09-09T14:33:09;28.80;44.90
37560;DHT22;23398;50.928;7.084;2022-09-09T14:35:35;28.80;45.20
37560;DHT22;23398;50.928;7.084;2022-09-09T14:38:02;28.90;45.10
37560;DHT22;23398;50.928;7.084;2022-09-09T14:40:28;28.70;45.40
37560;DHT22;23398;50.928;7.084;2022-09-09T14:42:53;28.70;45.00
37560;DHT22;23398;50.928;7.084;2022-09-09T14:45:19;28.60;45.00
37560;DHT22;23398;50.928;7.084;2022-09-09T14:47:46;28.50;45.10
37560;DHT22;23398;50.928;7.084;2022-09-09T14:50:12;28.50;45.10
37560;DHT22;23398;50.928;7.084;2022-09-09T14:52:38;28.20;45.20
37560;DHT22;23398;50.928;7.084;2022-09-09T14:55:04;28.10;45.40
37560;DHT22;23398;50.928;7.084;2022-09-09T14:57:31;27.90;45.60
37560;DHT22;23398;50.928;7.084;2022-09-09T14:59:56;27.80;46.20
37560;DHT22;23398;50.928;7.084;2022-09-09T15:02:22;27.70;46.60
37560;DHT22;23398;50.928;7.084;2022-09-09T15:04:48;27.40;47.40
37560;DHT22;23398;50.928;7.084;2022-09-09T15:07:15;27.20;49.10
37560;DHT22;23398;50.928;7.084;2022-09-09T15:09:42;27.00;50.20
37560;DHT22;23398;50.928;7.084;2022-09-09T15:12:07;26.80;50.90
37560;DHT22;23398;50.928;7.084;2022-09-09T15:14:33;26.70;51.80
37560;DHT22;23398;50.928;7.084;2022-09-09T15:16:59;26.50;52.60
37560;DHT22;23398;50.928;7.084;2022-09-09T15:19:24;26.40;53.00
37560;DHT22;23398;50.928;7.084;2022-09-09T15:21:50;26.20;53.20
37560;DHT22;23398;50.928;7.084;2022-09-09T15:24:15;26.20;53.90
37560;DHT22;23398;50.928;7.084;2022-09-09T15:26:41;26.10;54.10
37560;DHT22;23398;50.928;7.084;2022-09-09T15:29:07;26.10;54.20
37560;DHT22;23398;50.928;7.084;2022-09-09T15:31:33;26.10;54.20
37560;DHT22;23398;50.928;7.084;2022-09-09T15:34:01;26.10;54.20
37560;DHT22;23398;50.928;7.084;2022-09-09T15:36:29;26.10;53.80
37560;DHT22;23398;50.928;7.084;2022-09-09T15:38:55;26.10;54.00
37560;DHT22;23398;50.928;7.084;2022-09-09T15:41:22;26.10;54.00
37560;DHT22;23398;50.928;7.084;2022-09-09T15:43:52;26.10;57.20
37560;DHT22;23398;50.928;7.084;2022-09-09T15:47:10;26.10;57.20
37560;DHT22;23398;50.928;7.084;2022-09-09T15:49:15;26.00;56.60
37560;DHT22;23398;50.928;7.084;2022-09-09T15:51:45;25.90;56.60
37560;DHT22;23398;50.928;7.084;2022-09-09T15:54:13;25.70;56.60
37560;DHT22;23398;50.928;7.084;2022-09-09T15:56:40;25.50;57.00
37560;DHT22;23398;50.928;7.084;2022-09-09T15:59:06;25.30;57.10
37560;DHT22;23398;50.928;7.084;2022-09-09T16:01:32;25.80;57.90
37560;DHT22;23398;50.928;7.084;2022-09-09T16:03:59;25.00;56.80
37560;DHT22;23398;50.928;7.084;2022-09-09T16:06:26;24.90;56.30
37560;DHT22;23398;50.928;7.084;2022-09-09T16:08:54;24.70;56.30
37560;DHT22;23398;50.928;7.084;2022-09-09T16:11:25;24.60;56.50
37560;DHT22;23398;50.928;7.084;2022-09-09T16:13:52;24.40;56.80
37560;DHT22;23398;50.928;7.084;2022-09-09T16:16:20;24.20;57.00
37560;DHT22;23398;50.928;7.084;2022-09-09T16:18:49;24.00;57.30
37560;DHT22;23398;50.928;7.084;2022-09-09T16:23:44;23.70;58.20
37560;DHT22;23398;50.928;7.084;2022-09-09T16:26:15;23.50;58.90
37560;DHT22;23398;50.928;7.084;2022-09-09T16:28:41;23.40;59.20
37560;DHT22;23398;50.928;7.084;2022-09-09T16:31:08;23.20;59.20
37560;DHT22;23398;50.928;7.084;2022-09-09T16:33:35;23.00;59.50
37560;DHT22;23398;50.928;7.084;2022-09-09T16:36:12;22.90;60.10
37560;DHT22;23398;50.928;7.084;2022-09-09T16:38:39;23.30;61.90
37560;DHT22;23398;50.928;7.084;2022-09-09T16:41:07;22.60;61.30
37560;DHT22;23398;50.928;7.084;2022-09-09T16:43:34;22.50;61.40
37560;DHT22;23398;50.928;7.084;2022-09-09T16:46:02;22.40;61.90
37560;DHT22;23398;50.928;7.084;2022-09-09T16:48:31;22.20;62.50
37560;DHT22;23398;50.928;7.084;2022-09-09T16:51:06;22.10;63.10
37560;DHT22;23398;50.928;7.084;2022-09-09T16:53:33;22.00;63.50
37560;DHT22;23398;50.928;7.084;2022-09-09T16:56:05;21.90;64.40
37560;DHT22;23398;50.928;7.084;2022-09-09T16:58:31;21.80;64.30
37560;DHT22;23398;50.928;7.084;2022-09-09T17:01:01;21.80;64.60
37560;DHT22;23398;50.928;7.084;2022-09-09T17:03:30;21.70;65.10
37560;DHT22;23398;50.928;7.084;2022-09-09T17:05:57;21.70;65.30
37560;DHT22;23398;50.928;7.084;2022-09-09T17:08:23;21.70;65.80
37560;DHT22;23398;50.928;7.084;2022-09-09T17:10:49;21.70;65.70
37560;DHT22;23398;50.928;7.084;2022-09-09T17:13:15;21.90;65.90
37560;DHT22;23398;50.928;7.084;2022-09-09T17:15:43;21.60;65.70
37560;DHT22;23398;50.928;7.084;2022-09-09T17:18:10;21.70;66.10
37560;DHT22;23398;50.928;7.084;2022-09-09T17:20:37;21.60;66.30
37560;DHT22;23398;50.928;7.084;2022-09-09T17:23:03;21.70;66.60
37560;DHT22;23398;50.928;7.084;2022-09-09T17:25:28;22.40;67.50
37560;DHT22;23398;50.928;7.084;2022-09-09T17:27:54;21.60;66.70
37560;DHT22;23398;50.928;7.084;2022-09-09T17:30:19;21.60;66.80
37560;DHT22;23398;50.928;7.084;2022-09-09T17:32:45;21.60;67.10
37560;DHT22;23398;50.928;7.084;2022-09-09T17:35:12;21.60;67.40